sensor_id;sensor_type;location;lat;lon;timestamp;pressure;altitude;pressure_sealevel;temperature;humidity
69855;BME280;57146;48.140;16.304;2022-12-11T00:00:09;98147.34;;;0.74;99.33
69855;BME280;57146;48.140;16.304;2022-12-11T00:02:37;98144.28;;;0.71;99.66
69855;BME280;57146;48.140;16.304;2022-12-11T00:05:04;98149.44;;;0.71;99.49
69855;BME280;57146;48.140;16.304;2022-12-11T00:07:31;98145.28;;;0.70;98.95
69855;BME280;57146;48.140;16.304;2022-12-11T00:09:58;98137.78;;;0.69;99.27
69855;BME280;57146;48.140;16.304;2022-12-11T00:12:26;98140.63;;;0.67;99.19
69855;BME280;57146;48.140;16.304;2022-12-11T00:14:53;98136.50;;;0.66;99.26
69855;BME280;57146;48.140;16.304;2022-12-11T00:17:19;98143.50;;;0.66;99.33
69855;BME280;57146;48.140;16.304;2022-12-11T00:19:46;98131.06;;;0.63;99.24
69855;BME280;57146;48.140;16.304;2022-12-11T00:22:14;98132.34;;;0.60;99.89
69855;BME280;57146;48.140;16.304;2022-12-11T00:24:40;98127.16;;;0.60;99.49
69855;BME280;57146;48.140;16.304;2022-12-11T00:27:07;98130.31;;;0.57;99.67
69855;BME280;57146;48.140;16.304;2022-12-11T00:29:35;98120.72;;;0.58;99.87
69855;BME280;57146;48.140;16.304;2022-12-11T00:32:01;98123.31;;;0.58;99.79
69855;BME280;57146;48.140;16.304;2022-12-11T00:34:29;98122.53;;;0.57;98.70
69855;BME280;57146;48.140;16.304;2022-12-11T00:36:56;98128.72;;;0.56;99.10
69855;BME280;57146;48.140;16.304;2022-12-11T00:39:23;98128.72;;;0.56;98.32
69855;BME280;57146;48.140;16.304;2022-12-11T00:41:50;98126.41;;;0.55;97.80
69855;BME280;57146;48.140;16.304;2022-12-11T00:44:17;98131.06;;;0.53;98.03
69855;BME280;57146;48.140;16.304;2022-12-11T00:46:44;98136.00;;;0.54;96.38
69855;BME280;57146;48.140;16.304;2022-12-11T00:49:11;98133.91;;;0.56;96.45
69855;BME280;57146;48.140;16.304;2022-12-11T00:51:38;98141.69;;;0.56;96.14
69855;BME280;57146;48.140;16.304;2022-12-11T00:54:05;98139.09;;;0.56;95.88
69855;BME280;57146;48.140;16.304;2022-12-11T00:56:32;98141.44;;;0.58;95.15
69855;BME280;57146;48.140;16.304;2022-12-11T00:58:59;98139.63;;;0.58;95.29
69855;BME280;57146;48.140;16.304;2022-12-11T01:01:26;98142.22;;;0.58;95.10
69855;BME280;57146;48.140;16.304;2022-12-11T01:03:53;98142.97;;;0.59;94.79
69855;BME280;57146;48.140;16.304;2022-12-11T01:06:23;98151.78;;;0.58;94.95
69855;BME280;57146;48.140;16.304;2022-12-11T01:08:50;98140.41;;;0.54;95.35
69855;BME280;57146;48.140;16.304;2022-12-11T01:11:17;98142.19;;;0.53;94.28
69855;BME280;57146;48.140;16.304;2022-12-11T01:13:44;98153.59;;;0.52;94.83
69855;BME280;57146;48.140;16.304;2022-12-11T01:16:15;98147.94;;;0.50;94.20
69855;BME280;57146;48.140;16.304;2022-12-11T01:18:42;98153.88;;;0.51;94.53
69855;BME280;57146;48.140;16.304;2022-12-11T01:21:12;98150.53;;;0.50;94.35
69855;BME280;57146;48.140;16.304;2022-12-11T01:23:39;98150.75;;;0.48;94.41
69855;BME280;57146;48.140;16.304;2022-12-11T01:26:08;98151.03;;;0.47;94.17
69855;BME280;57146;48.140;16.304;2022-12-11T01:28:36;98147.91;;;0.45;94.12
69855;BME280;57146;48.140;16.304;2022-12-11T01:31:10;98149.72;;;0.44;94.47
69855;BME280;57146;48.140;16.304;2022-12-11T01:33:38;98142.75;;;0.40;95.16
69855;BME280;57146;48.140;16.304;2022-12-11T01:36:31;98141.47;;;0.37;95.00
69855;BME280;57146;48.140;16.304;2022-12-11T01:38:57;98149.75;;;0.34;96.04
69855;BME280;57146;48.140;16.304;2022-12-11T01:41:24;98153.63;;;0.32;94.53
69855;BME280;57146;48.140;16.304;2022-12-11T01:46:22;98168.88;;;0.28;92.73
69855;BME280;57146;48.140;16.304;2022-12-11T01:48:50;98161.38;;;0.27;92.97
69855;BME280;57146;48.140;16.304;2022-12-11T01:51:17;98159.56;;;0.27;92.52
69855;BME280;57146;48.140;16.304;2022-12-11T01:53:50;98164.75;;;0.27;92.03
69855;BME280;57146;48.140;16.304;2022-12-11T01:56:20;98165.03;;;0.26;92.08
69855;BME280;57146;48.140;16.304;2022-12-11T01:58:53;98164.25;;;0.25;91.01
69855;BME280;57146;48.140;16.304;2022-12-11T02:03:58;98161.91;;;0.29;89.83
69855;BME280;57146;48.140;16.304;2022-12-11T02:06:34;98154.94;;;0.29;90.35
69855;BME280;57146;48.140;16.304;2022-12-11T02:09:03;98157.75;;;0.28;90.48
69855;BME280;57146;48.140;16.304;2022-12-11T02:20:06;98172.00;;;0.30;89.59
69855;BME280;57146;48.140;16.304;2022-12-11T02:28:28;98163.97;;;0.32;87.34
69855;BME280;57146;48.140;16.304;2022-12-11T02:31:35;98163.97;;;0.32;87.42
69855;BME280;57146;48.140;16.304;2022-12-11T02:34:24;98164.50;;;0.29;87.52
69855;BME280;57146;48.140;16.304;2022-12-11T02:36:58;98158.81;;;0.27;88.57
69855;BME280;57146;48.140;16.304;2022-12-11T02:39:27;98167.84;;;0.24;89.25
69855;BME280;57146;48.140;16.304;2022-12-11T02:41:55;98159.59;;;0.22;88.84
69855;BME280;57146;48.140;16.304;2022-12-11T02:44:25;98158.81;;;0.21;88.40
69855;BME280;57146;48.140;16.304;2022-12-11T02:46:55;98158.00;;;0.21;88.64
69855;BME280;57146;48.140;16.304;2022-12-11T02:49:23;98147.41;;;0.17;89.23
69855;BME280;57146;48.140;16.304;2022-12-11T02:51:52;98142.22;;;0.17;87.78
69855;BME280;57146;48.140;16.304;2022-12-11T02:54:24;98149.22;;;0.17;88.53
69855;BME280;57146;48.140;16.304;2022-12-11T02:57:01;98146.63;;;0.17;87.86
69855;BME280;57146;48.140;16.304;2022-12-11T02:59:35;98141.44;;;0.17;87.70
69855;BME280;57146;48.140;16.304;2022-12-11T03:02:04;98156.97;;;0.17;86.97
69855;BME280;57146;48.140;16.304;2022-12-11T03:04:33;98158.03;;;0.16;86.99
69855;BME280;57146;48.140;16.304;2022-12-11T03:07:11;98146.38;;;0.13;86.36
69855;BME280;57146;48.140;16.304;2022-12-11T03:09:42;98142.78;;;0.14;86.34
69855;BME280;57146;48.140;16.304;2022-12-11T03:12:16;98130.06;;;0.13;85.98
69855;BME280;57146;48.140;16.304;2022-12-11T03:14:44;98138.38;;;0.15;85.17
69855;BME280;57146;48.140;16.304;2022-12-11T03:17:21;98125.69;;;0.18;83.13
69855;BME280;57146;48.140;16.304;2022-12-11T03:20:02;98120.50;;;0.23;81.14
69855;BME280;57146;48.140;16.304;2022-12-11T03:22:38;98131.63;;;0.24;82.24
69855;BME280;57146;48.140;16.304;2022-12-11T03:25:14;98125.16;;;0.27;79.27
69855;BME280;57146;48.140;16.304;2022-12-11T03:30:19;98124.63;;;0.35;77.54
69855;BME280;57146;48.140;16.304;2022-12-11T03:32:53;98137.31;;;0.36;78.43
69855;BME280;57146;48.140;16.304;2022-12-11T03:35:32;98143.28;;;0.37;77.21
69855;BME280;57146;48.140;16.304;2022-12-11T03:38:04;98141.72;;;0.36;77.67
69855;BME280;57146;48.140;16.304;2022-12-11T03:40:34;98132.38;;;0.35;78.08
69855;BME280;57146;48.140;16.304;2022-12-11T03:43:04;98127.97;;;0.35;77.48
69855;BME280;57146;48.140;16.304;2022-12-11T03:45:32;98129.81;;;0.35;78.27
69855;BME280;57146;48.140;16.304;2022-12-11T03:48:01;98131.63;;;0.34;78.68
69855;BME280;57146;48.140;16.304;2022-12-11T03:50:30;98136.28;;;0.32;78.13
69855;BME280;57146;48.140;16.304;2022-12-11T03:53:00;98135.75;;;0.30;79.36
69855;BME280;57146;48.140;16.304;2022-12-11T03:55:29;98140.94;;;0.30;78.22
69855;BME280;57146;48.140;16.304;2022-12-11T03:57:58;98143.00;;;0.28;78.54
69855;BME280;57146;48.140;16.304;2022-12-11T04:00:25;98147.41;;;0.28;78.84
69855;BME280;57146;48.140;16.304;2022-12-11T04:02:52;98140.69;;;0.27;79.68
69855;BME280;57146;48.140;16.304;2022-12-11T04:05:19;98144.56;;;0.24;80.39
69855;BME280;57146;48.140;16.304;2022-12-11T04:07:45;98140.44;;;0.23;79.64
69855;BME280;57146;48.140;16.304;2022-12-11T04:10:12;98155.97;;;0.23;80.45
69855;BME280;57146;48.140;16.304;2022-12-11T04:12:39;98139.13;;;0.20;81.34
69855;BME280;57146;48.140;16.304;2022-12-11T04:15:06;98146.63;;;0.17;82.25
69855;BME280;57146;48.140;16.304;2022-12-11T04:17:35;98145.84;;;0.16;82.27
69855;BME280;57146;48.140;16.304;2022-12-11T04:20:04;98140.19;;;0.14;82.84
69855;BME280;57146;48.140;16.304;2022-12-11T04:22:31;98141.97;;;0.14;82.97
69855;BME280;57146;48.140;16.304;2022-12-11T04:24:59;98135.25;;;0.13;84.17
69855;BME280;57146;48.140;16.304;2022-12-11T04:27:26;98141.22;;;0.08;84.72
69855;BME280;57146;48.140;16.304;2022-12-11T04:29:53;98153.13;;;0.04;85.15
69855;BME280;57146;48.140;16.304;2022-12-11T04:32:20;98140.16;;;-0.01;86.53
69855;BME280;57146;48.140;16.304;2022-12-11T04:34:47;98150.50;;;-0.06;86.27
69855;BME280;57146;48.140;16.304;2022-12-11T04:37:14;98145.06;;;-0.10;87.40
69855;BME280;57146;48.140;16.304;2022-12-11T04:39:41;98162.91;;;-0.13;87.19
69855;BME280;57146;48.140;16.304;2022-12-11T04:42:07;98144.00;;;-0.19;92.36
69855;BME280;57146;48.140;16.304;2022-12-11T04:44:34;98144.03;;;-0.24;87.26
69855;BME280;57146;48.140;16.304;2022-12-11T04:47:01;98155.91;;;-0.23;88.34
69855;BME280;57146;48.140;16.304;2022-12-11T04:49:28;98149.44;;;-0.26;88.03
69855;BME280;57146;48.140;16.304;2022-12-11T04:51:55;98148.41;;;-0.25;87.35
69855;BME280;57146;48.140;16.304;2022-12-11T04:54:22;98160.53;;;-0.25;87.86
69855;BME280;57146;48.140;16.304;2022-12-11T04:56:48;98164.69;;;-0.29;88.36
69855;BME280;57146;48.140;16.304;2022-12-11T04:59:15;98163.13;;;-0.30;88.54
69855;BME280;57146;48.140;16.304;2022-12-11T05:01:42;98170.63;;;-0.34;88.38
69855;BME280;57146;48.140;16.304;2022-12-11T05:04:09;98173.22;;;-0.39;88.74
69855;BME280;57146;48.140;16.304;2022-12-11T05:06:36;98164.91;;;-0.46;90.28
69855;BME280;57146;48.140;16.304;2022-12-11T05:09:02;98170.81;;;-0.51;91.55
69855;BME280;57146;48.140;16.304;2022-12-11T05:11:29;98166.69;;;-0.57;92.37
69855;BME280;57146;48.140;16.304;2022-12-11T05:13:56;98172.59;;;-0.61;93.01
69855;BME280;57146;48.140;16.304;2022-12-11T05:16:23;98167.66;;;-0.68;93.45
69855;BME280;57146;48.140;16.304;2022-12-11T05:18:50;98178.53;;;-0.71;94.65
69855;BME280;57146;48.140;16.304;2022-12-11T05:21:17;98190.13;;;-0.74;94.98
69855;BME280;57146;48.140;16.304;2022-12-11T05:23:44;98189.63;;;-0.70;95.35
69855;BME280;57146;48.140;16.304;2022-12-11T05:26:15;98190.63;;;-0.77;95.35
69855;BME280;57146;48.140;16.304;2022-12-11T05:28:43;98199.44;;;-0.78;95.10
69855;BME280;57146;48.140;16.304;2022-12-11T05:31:15;98195.78;;;-0.82;94.46
69855;BME280;57146;48.140;16.304;2022-12-11T05:33:44;98190.88;;;-0.83;94.91
69855;BME280;57146;48.140;16.304;2022-12-11T05:36:14;98186.47;;;-0.83;95.37
69855;BME280;57146;48.140;16.304;2022-12-11T05:38:42;98191.63;;;-0.83;96.06
69855;BME280;57146;48.140;16.304;2022-12-11T05:41:12;98196.03;;;-0.83;96.19
69855;BME280;57146;48.140;16.304;2022-12-11T05:43:39;98207.69;;;-0.81;95.05
69855;BME280;57146;48.140;16.304;2022-12-11T05:48:36;98215.72;;;-0.77;94.99
69855;BME280;57146;48.140;16.304;2022-12-11T05:51:05;98216.47;;;-0.77;94.80
69855;BME280;57146;48.140;16.304;2022-12-11T05:53:32;98218.81;;;-0.75;95.03
69855;BME280;57146;48.140;16.304;2022-12-11T05:56:03;98221.94;;;-0.73;95.45
69855;BME280;57146;48.140;16.304;2022-12-11T05:58:33;98220.13;;;-0.73;95.35
69855;BME280;57146;48.140;16.304;2022-12-11T06:01:00;98225.03;;;-0.71;94.77
69855;BME280;57146;48.140;16.304;2022-12-11T06:03:27;98228.41;;;-0.70;94.64
69855;BME280;57146;48.140;16.304;2022-12-11T06:05:54;98236.94;;;-0.70;94.65
69855;BME280;57146;48.140;16.304;2022-12-11T06:08:21;98225.56;;;-0.69;95.07
69855;BME280;57146;48.140;16.304;2022-12-11T06:10:48;98234.09;;;-0.68;95.29
69855;BME280;57146;48.140;16.304;2022-12-11T06:13:16;98240.03;;;-0.68;94.92
69855;BME280;57146;48.140;16.304;2022-12-11T06:15:43;98226.38;;;-0.63;93.56
69855;BME280;57146;48.140;16.304;2022-12-11T06:18:09;98231.53;;;-0.63;93.50
69855;BME280;57146;48.140;16.304;2022-12-11T06:20:37;98239.81;;;-0.61;93.60
69855;BME280;57146;48.140;16.304;2022-12-11T06:23:03;98236.22;;;-0.60;92.13
69855;BME280;57146;48.140;16.304;2022-12-11T06:25:31;98233.63;;;-0.60;92.25
69855;BME280;57146;48.140;16.304;2022-12-11T06:27:57;98247.84;;;-0.58;91.83
69855;BME280;57146;48.140;16.304;2022-12-11T06:30:24;98246.28;;;-0.54;90.30
69855;BME280;57146;48.140;16.304;2022-12-11T06:33:05;98246.28;;;-0.54;90.60
69855;BME280;57146;48.140;16.304;2022-12-11T06:35:32;98256.91;;;-0.50;88.65
69855;BME280;57146;48.140;16.304;2022-12-11T06:38:07;98268.06;;;-0.50;89.64
69855;BME280;57146;48.140;16.304;2022-12-11T06:40:35;98265.22;;;-0.48;89.21
69855;BME280;57146;48.140;16.304;2022-12-11T06:43:01;98262.13;;;-0.45;87.69
69855;BME280;57146;48.140;16.304;2022-12-11T06:45:28;98247.13;;;-0.43;87.40
69855;BME280;57146;48.140;16.304;2022-12-11T06:47:55;98248.94;;;-0.43;87.30
69855;BME280;57146;48.140;16.304;2022-12-11T06:50:22;98242.75;;;-0.42;85.52
69855;BME280;57146;48.140;16.304;2022-12-11T06:52:49;98259.56;;;-0.40;85.90
69855;BME280;57146;48.140;16.304;2022-12-11T06:55:16;98259.59;;;-0.35;84.26
69855;BME280;57146;48.140;16.304;2022-12-11T06:57:43;98267.84;;;-0.38;84.13
69855;BME280;57146;48.140;16.304;2022-12-11T07:00:10;98268.88;;;-0.39;84.56
69855;BME280;57146;48.140;16.304;2022-12-11T07:02:37;98278.41;;;-0.39;84.04
69855;BME280;57146;48.140;16.304;2022-12-11T07:05:04;98286.97;;;-0.39;83.96
69855;BME280;57146;48.140;16.304;2022-12-11T07:07:31;98295.75;;;-0.40;81.91
69855;BME280;57146;48.140;16.304;2022-12-11T07:09:58;98294.97;;;-0.40;81.97
69855;BME280;57146;48.140;16.304;2022-12-11T07:12:33;98301.97;;;-0.41;82.27
69855;BME280;57146;48.140;16.304;2022-12-11T07:15:01;98299.38;;;-0.36;81.19
69855;BME280;57146;48.140;16.304;2022-12-11T07:17:28;98297.56;;;-0.40;80.98
69855;BME280;57146;48.140;16.304;2022-12-11T07:19:55;98300.16;;;-0.40;81.58
69855;BME280;57146;48.140;16.304;2022-12-11T07:22:22;98292.66;;;-0.42;81.34
69855;BME280;57146;48.140;16.304;2022-12-11T07:24:49;98290.84;;;-0.41;81.26
69855;BME280;57146;48.140;16.304;2022-12-11T07:27:15;98291.06;;;-0.43;80.92
69855;BME280;57146;48.140;16.304;2022-12-11T07:29:42;98284.13;;;-0.42;80.81
69855;BME280;57146;48.140;16.304;2022-12-11T07:32:09;98292.88;;;-0.43;80.00
69855;BME280;57146;48.140;16.304;2022-12-11T07:34:36;98293.91;;;-0.44;80.75
69855;BME280;57146;48.140;16.304;2022-12-11T07:37:03;98293.16;;;-0.45;81.38
69855;BME280;57146;48.140;16.304;2022-12-11T07:39:30;98285.91;;;-0.43;80.54
69855;BME280;57146;48.140;16.304;2022-12-11T07:41:57;98298.59;;;-0.41;79.42
69855;BME280;57146;48.140;16.304;2022-12-11T07:44:24;98279.47;;;-0.40;79.27
69855;BME280;57146;48.140;16.304;2022-12-11T07:46:51;98284.63;;;-0.40;80.20
69855;BME280;57146;48.140;16.304;2022-12-11T07:49:18;98277.66;;;-0.40;81.06
69855;BME280;57146;48.140;16.304;2022-12-11T07:51:44;98280.78;;;-0.38;80.55
69855;BME280;57146;48.140;16.304;2022-12-11T07:54:13;98285.44;;;-0.35;79.84
69855;BME280;57146;48.140;16.304;2022-12-11T07:56:40;98287.25;;;-0.35;79.41
69855;BME280;57146;48.140;16.304;2022-12-11T07:59:10;98283.88;;;-0.36;79.63
69855;BME280;57146;48.140;16.304;2022-12-11T08:01:37;98293.97;;;-0.34;78.49
69855;BME280;57146;48.140;16.304;2022-12-11T08:04:06;98277.91;;;-0.36;79.61
69855;BME280;57146;48.140;16.304;2022-12-11T08:06:35;98287.50;;;-0.37;79.21
69855;BME280;57146;48.140;16.304;2022-12-11T08:09:05;98278.97;;;-0.37;77.84
69855;BME280;57146;48.140;16.304;2022-12-11T08:11:33;98284.13;;;-0.37;78.44
69855;BME280;57146;48.140;16.304;2022-12-11T08:14:00;98284.91;;;-0.37;78.36
69855;BME280;57146;48.140;16.304;2022-12-11T08:16:28;98280.28;;;-0.35;78.82
69855;BME280;57146;48.140;16.304;2022-12-11T08:18:55;98284.66;;;-0.35;77.94
69855;BME280;57146;48.140;16.304;2022-12-11T08:21:24;98293.44;;;-0.36;78.72
69855;BME280;57146;48.140;16.304;2022-12-11T08:23:52;98300.97;;;-0.35;79.00
69855;BME280;57146;48.140;16.304;2022-12-11T08:26:23;98298.13;;;-0.33;79.15
69855;BME280;57146;48.140;16.304;2022-12-11T08:28:52;98294.22;;;-0.36;79.22
69855;BME280;57146;48.140;16.304;2022-12-11T08:31:23;98294.22;;;-0.36;78.61
69855;BME280;57146;48.140;16.304;2022-12-11T08:33:51;98292.16;;;-0.34;78.63
69855;BME280;57146;48.140;16.304;2022-12-11T08:36:20;98310.00;;;-0.32;77.67
69855;BME280;57146;48.140;16.304;2022-12-11T08:38:48;98307.97;;;-0.30;78.00
69855;BME280;57146;48.140;16.304;2022-12-11T08:41:18;98315.72;;;-0.30;77.65
69855;BME280;57146;48.140;16.304;2022-12-11T08:43:45;98312.88;;;-0.29;78.87
69855;BME280;57146;48.140;16.304;2022-12-11T08:46:13;98325.06;;;-0.24;78.73
69855;BME280;57146;48.140;16.304;2022-12-11T08:48:41;98329.72;;;-0.21;78.43
69855;BME280;57146;48.140;16.304;2022-12-11T08:51:13;98331.56;;;-0.16;79.05
69855;BME280;57146;48.140;16.304;2022-12-11T08:53:40;98332.06;;;-0.14;78.40
69855;BME280;57146;48.140;16.304;2022-12-11T08:56:12;98335.97;;;-0.12;78.11
69855;BME280;57146;48.140;16.304;2022-12-11T08:58:39;98352.81;;;-0.09;77.81
69855;BME280;57146;48.140;16.304;2022-12-11T09:01:08;98345.81;;;-0.09;76.07
69855;BME280;57146;48.140;16.304;2022-12-11T09:03:37;98335.47;;;-0.09;77.27
69855;BME280;57146;48.140;16.304;2022-12-11T09:06:09;98326.66;;;-0.08;77.26
69855;BME280;57146;48.140;16.304;2022-12-11T09:08:36;98329.53;;;-0.04;76.43
69855;BME280;57146;48.140;16.304;2022-12-11T09:11:05;98332.88;;;-0.04;74.72
69855;BME280;57146;48.140;16.304;2022-12-11T09:13:33;98332.13;;;-0.04;75.23
69855;BME280;57146;48.140;16.304;2022-12-11T09:16:05;98330.06;;;-0.02;75.96
69855;BME280;57146;48.140;16.304;2022-12-11T09:18:34;98321.81;;;0.01;77.06
69855;BME280;57146;48.140;16.304;2022-12-11T09:21:03;98315.84;;;0.01;76.71
69855;BME280;57146;48.140;16.304;2022-12-11T09:23:30;98315.34;;;0.04;77.05
69855;BME280;57146;48.140;16.304;2022-12-11T09:25:57;98317.94;;;0.04;75.71
69855;BME280;57146;48.140;16.304;2022-12-11T09:28:25;98318.16;;;0.02;75.42
69855;BME280;57146;48.140;16.304;2022-12-11T09:30:52;98302.91;;;0.01;76.67
69855;BME280;57146;48.140;16.304;2022-12-11T09:33:18;98299.00;;;-0.02;76.26
69855;BME280;57146;48.140;16.304;2022-12-11T09:35:45;98306.25;;;-0.04;76.66
69855;BME280;57146;48.140;16.304;2022-12-11T09:38:21;98293.06;;;-0.03;76.94
69855;BME280;57146;48.140;16.304;2022-12-11T09:40:48;98292.56;;;0.01;76.13
69855;BME280;57146;48.140;16.304;2022-12-11T09:45:59;98300.31;;;0.06;76.29
69855;BME280;57146;48.140;16.304;2022-12-11T09:48:31;98299.06;;;0.08;76.93
69855;BME280;57146;48.140;16.304;2022-12-11T09:51:04;98296.47;;;0.08;76.08
69855;BME280;57146;48.140;16.304;2022-12-11T09:53:36;98291.03;;;0.10;76.51
69855;BME280;57146;48.140;16.304;2022-12-11T10:01:21;98289.47;;;0.14;75.47
69855;BME280;57146;48.140;16.304;2022-12-11T10:07:00;98281.53;;;0.41;78.79
69855;BME280;57146;48.140;16.304;2022-12-11T10:09:57;98275.34;;;0.57;76.20
69855;BME280;57146;48.140;16.304;2022-12-11T10:13:13;98279.97;;;0.40;72.22
69855;BME280;57146;48.140;16.304;2022-12-11T10:15:53;98277.13;;;0.36;71.69
69855;BME280;57146;48.140;16.304;2022-12-11T10:18:24;98273.75;;;0.36;72.42
69855;BME280;57146;48.140;16.304;2022-12-11T10:20:52;98280.44;;;0.32;70.99
69855;BME280;57146;48.140;16.304;2022-12-11T10:23:46;98275.03;;;0.38;72.17
69855;BME280;57146;48.140;16.304;2022-12-11T10:26:20;98272.19;;;0.45;71.97
69855;BME280;57146;48.140;16.304;2022-12-11T10:28:48;98267.53;;;0.42;70.58
69855;BME280;57146;48.140;16.304;2022-12-11T10:33:59;98269.59;;;0.45;69.12
69855;BME280;57146;48.140;16.304;2022-12-11T10:36:32;98267.28;;;0.43;69.07
69855;BME280;57146;48.140;16.304;2022-12-11T10:39:01;98264.69;;;0.43;69.76
69855;BME280;57146;48.140;16.304;2022-12-11T10:41:43;98263.94;;;0.43;69.04
69855;BME280;57146;48.140;16.304;2022-12-11T10:44:25;98267.25;;;0.38;68.58
69855;BME280;57146;48.140;16.304;2022-12-11T10:49:30;98267.25;;;0.38;67.52
69855;BME280;57146;48.140;16.304;2022-12-11T10:51:58;98276.84;;;0.33;68.67
69855;BME280;57146;48.140;16.304;2022-12-11T10:54:37;98280.19;;;0.28;68.53
69855;BME280;57146;48.140;16.304;2022-12-11T10:57:08;98277.88;;;0.27;69.33
69855;BME280;57146;48.140;16.304;2022-12-11T11:02:06;98263.38;;;0.26;69.83
69855;BME280;57146;48.140;16.304;2022-12-11T11:04:42;98262.88;;;0.29;69.49
69855;BME280;57146;48.140;16.304;2022-12-11T11:07:18;98263.13;;;0.27;69.25
69855;BME280;57146;48.140;16.304;2022-12-11T11:09:45;98262.59;;;0.25;68.50
69855;BME280;57146;48.140;16.304;2022-12-11T11:12:21;98270.09;;;0.21;68.65
69855;BME280;57146;48.140;16.304;2022-12-11T11:15:13;98271.38;;;0.24;68.94
69855;BME280;57146;48.140;16.304;2022-12-11T11:17:52;98254.31;;;0.23;69.07
69855;BME280;57146;48.140;16.304;2022-12-11T11:20:26;98262.34;;;0.21;68.17
69855;BME280;57146;48.140;16.304;2022-12-11T11:23:02;98255.09;;;0.18;67.19
69855;BME280;57146;48.140;16.304;2022-12-11T11:25:31;98260.25;;;0.18;68.96
69855;BME280;57146;48.140;16.304;2022-12-11T11:28:04;98264.91;;;0.11;68.36
69855;BME280;57146;48.140;16.304;2022-12-11T11:30:39;98258.41;;;0.09;68.19
69855;BME280;57146;48.140;16.304;2022-12-11T11:33:17;98263.34;;;0.05;68.06
69855;BME280;57146;48.140;16.304;2022-12-11T11:36:24;98262.28;;;0.01;69.12
69855;BME280;57146;48.140;16.304;2022-12-11T11:39:25;98265.13;;;-0.01;69.36
69855;BME280;57146;48.140;16.304;2022-12-11T11:42:20;98255.81;;;-0.02;69.24
69855;BME280;57146;48.140;16.304;2022-12-11T11:47:26;98260.44;;;-0.04;69.91
69855;BME280;57146;48.140;16.304;2022-12-11T11:50:10;98259.16;;;-0.06;69.11
69855;BME280;57146;48.140;16.304;2022-12-11T11:52:56;98250.38;;;-0.05;70.09
69855;BME280;57146;48.140;16.304;2022-12-11T11:55:39;98252.94;;;-0.05;70.53
69855;BME280;57146;48.140;16.304;2022-12-11T11:58:19;98254.50;;;-0.04;70.56
69855;BME280;57146;48.140;16.304;2022-12-11T12:00:48;98253.22;;;-0.02;70.42
69855;BME280;57146;48.140;16.304;2022-12-11T12:03:18;98260.47;;;0.02;69.84
69855;BME280;57146;48.140;16.304;2022-12-11T12:05:58;98262.56;;;0.05;69.52
69855;BME280;57146;48.140;16.304;2022-12-11T12:08:41;98266.44;;;0.07;68.90
69855;BME280;57146;48.140;16.304;2022-12-11T12:17:16;98267.50;;;0.11;69.75
69855;BME280;57146;48.140;16.304;2022-12-11T12:44:21;98269.50;;;-0.06;66.37
69855;BME280;57146;48.140;16.304;2022-12-11T12:47:01;98268.97;;;-0.08;66.37
69855;BME280;57146;48.140;16.304;2022-12-11T12:49:34;98265.09;;;-0.11;66.20
69855;BME280;57146;48.140;16.304;2022-12-11T12:52:04;98266.13;;;-0.12;65.88
69855;BME280;57146;48.140;16.304;2022-12-11T12:54:32;98264.31;;;-0.11;67.07
69855;BME280;57146;48.140;16.304;2022-12-11T12:57:03;98261.22;;;-0.08;65.32
69855;BME280;57146;48.140;16.304;2022-12-11T12:59:30;98265.34;;;-0.07;65.73
69855;BME280;57146;48.140;16.304;2022-12-11T13:02:00;98257.09;;;-0.09;64.60
69855;BME280;57146;48.140;16.304;2022-12-11T13:04:42;98262.25;;;-0.09;65.42
69855;BME280;57146;48.140;16.304;2022-12-11T13:07:28;98263.81;;;-0.08;64.76
69855;BME280;57146;48.140;16.304;2022-12-11T13:09:59;98263.56;;;-0.07;65.04
69855;BME280;57146;48.140;16.304;2022-12-11T13:12:46;98267.94;;;-0.07;66.34
69855;BME280;57146;48.140;16.304;2022-12-11T13:15:30;98268.97;;;-0.08;69.35
69855;BME280;57146;48.140;16.304;2022-12-11T13:17:59;98261.22;;;-0.13;71.51
69855;BME280;57146;48.140;16.304;2022-12-11T13:20:31;98267.16;;;-0.13;72.22
69855;BME280;57146;48.140;16.304;2022-12-11T13:25:28;98261.72;;;-0.16;75.47
69855;BME280;57146;48.140;16.304;2022-12-11T13:28:20;98266.63;;;-0.20;76.82
69855;BME280;57146;48.140;16.304;2022-12-11T13:33:56;98273.56;;;-0.31;78.81
69855;BME280;57146;48.140;16.304;2022-12-11T13:36:31;98281.81;;;-0.34;78.63
69855;BME280;57146;48.140;16.304;2022-12-11T13:39:14;98282.59;;;-0.38;79.26
69855;BME280;57146;48.140;16.304;2022-12-11T13:41:46;98285.94;;;-0.38;79.29
69855;BME280;57146;48.140;16.304;2022-12-11T13:44:26;98279.22;;;-0.39;79.33
69855;BME280;57146;48.140;16.304;2022-12-11T13:46:56;98282.03;;;-0.40;79.59
69855;BME280;57146;48.140;16.304;2022-12-11T13:49:28;98281.53;;;-0.42;79.22
69855;BME280;57146;48.140;16.304;2022-12-11T13:51:59;98283.84;;;-0.46;79.49
69855;BME280;57146;48.140;16.304;2022-12-11T13:54:28;98291.88;;;-0.42;80.17
69855;BME280;57146;48.140;16.304;2022-12-11T13:59:35;98290.06;;;-0.42;78.49
69855;BME280;57146;48.140;16.304;2022-12-11T14:02:12;98292.38;;;-0.45;79.30
69855;BME280;57146;48.140;16.304;2022-12-11T14:04:41;98289.50;;;-0.49;78.20
69855;BME280;57146;48.140;16.304;2022-12-11T14:07:09;98299.56;;;-0.53;79.13
69855;BME280;57146;48.140;16.304;2022-12-11T14:09:41;98298.81;;;-0.53;79.64
69855;BME280;57146;48.140;16.304;2022-12-11T14:12:15;98305.25;;;-0.56;79.34
69855;BME280;57146;48.140;16.304;2022-12-11T14:14:54;98305.75;;;-0.59;78.80
69855;BME280;57146;48.140;16.304;2022-12-11T14:17:24;98314.53;;;-0.60;79.30
69855;BME280;57146;48.140;16.304;2022-12-11T14:19:53;98311.41;;;-0.62;79.06
69855;BME280;57146;48.140;16.304;2022-12-11T14:22:24;98317.34;;;-0.61;78.96
69855;BME280;57146;48.140;16.304;2022-12-11T14:24:57;98316.56;;;-0.62;79.35
69855;BME280;57146;48.140;16.304;2022-12-11T14:27:26;98316.28;;;-0.65;78.60
69855;BME280;57146;48.140;16.304;2022-12-11T14:29:53;98316.78;;;-0.68;78.54
69855;BME280;57146;48.140;16.304;2022-12-11T14:32:30;98320.41;;;-0.69;79.54
69855;BME280;57146;48.140;16.304;2022-12-11T14:34:59;98321.16;;;-0.74;79.72
69855;BME280;57146;48.140;16.304;2022-12-11T14:37:28;98329.41;;;-0.77;79.88